Time;durP1;ratioP1;P1;durP2;ratioP2;P2;SDS_P1;SDS_P2;PMS_P1;PMS_P2;Temp;Humidity;BMP_temperature;BMP_pressure;BME280_temperature;BME280_humidity;BME280_pressure;Samples;Min_cycle;Max_cycle;Signal;HPM_P1;HPM_P2
2022/01/30 00:02:13;;;;;;;14.07;3.40;;;13.20;77.70;;;;;;5053360;28;20029;-69
2022/01/30 00:04:38;;;;;;;17.95;4.78;;;13.20;78.60;;;;;;5053313;28;20106;-69
2022/01/30 00:07:04;;;;;;;15.98;3.80;;;13.20;77.70;;;;;;5053255;28;20017;-68
2022/01/30 00:09:30;;;;;;;14.07;3.75;;;13.10;77.70;;;;;;5053519;28;20466;-68
2022/01/30 00:11:59;;;;;;;16.17;3.35;;;13.10;78.10;;;;;;5053521;28;20067;-69
2022/01/30 00:14:28;;;;;;;16.38;4.60;;;13.00;77.70;;;;;;5053173;28;20028;-68
2022/01/30 00:17:03;;;;;;;12.73;3.35;;;13.00;77.70;;;;;;5052831;28;20122;-68
2022/01/30 00:22:36;;;;;;;17.70;4.37;;;12.90;78.00;;;;;;5053187;28;20033;-69
2022/01/30 00:24:54;;;;;;;17.63;4.60;;;12.90;78.20;;;;;;5052998;28;20025;-68
2022/01/30 00:27:27;;;;;;;23.77;5.75;;;12.80;78.40;;;;;;5053051;28;20100;-69
2022/01/30 00:29:53;;;;;;;18.35;5.05;;;12.70;78.90;;;;;;5053206;28;20127;-68
2022/01/30 00:32:19;;;;;;;20.85;4.93;;;12.70;78.80;;;;;;5052501;28;20040;-68
2022/01/30 00:34:45;;;;;;;20.13;4.47;;;12.70;78.90;;;;;;5053031;28;20024;-66
2022/01/30 00:37:10;;;;;;;20.10;4.80;;;12.70;79.20;;;;;;5052868;28;20044;-68
2022/01/30 00:39:36;;;;;;;20.58;4.72;;;12.60;79.30;;;;;;5053098;28;20056;-67
2022/01/30 00:42:02;;;;;;;19.48;4.05;;;12.60;79.60;;;;;;5052888;28;20025;-68
2022/01/30 00:44:27;;;;;;;24.33;5.07;;;12.60;79.50;;;;;;5052956;28;20509;-67
2022/01/30 00:46:55;;;;;;;16.77;4.00;;;12.60;79.60;;;;;;5052548;28;20458;-68
2022/01/30 00:49:20;;;;;;;20.92;4.78;;;12.60;79.70;;;;;;5052826;28;20037;-67
2022/01/30 00:51:46;;;;;;;30.00;5.50;;;12.50;79.70;;;;;;5052881;28;20029;-68
2022/01/30 00:54:11;;;;;;;21.83;4.85;;;12.50;79.70;;;;;;5052776;28;20044;-68
2022/01/30 00:56:37;;;;;;;14.13;4.35;;;12.50;79.70;;;;;;5052755;28;20035;-70
2022/01/30 00:59:03;;;;;;;16.58;3.92;;;12.50;79.80;;;;;;5052744;28;20022;-68
2022/01/30 01:01:28;;;;;;;15.88;4.32;;;12.40;80.00;;;;;;5052474;28;20033;-67
2022/01/30 01:03:54;;;;;;;20.92;5.13;;;12.40;80.20;;;;;;5052801;28;20025;-68
2022/01/30 01:06:19;;;;;;;13.75;3.60;;;12.40;80.30;;;;;;5052791;28;20037;-68
2022/01/30 01:08:57;;;;;;;19.73;4.57;;;12.30;80.60;;;;;;5055156;28;20501;-68
2022/01/30 01:24:44;;;;;;;20.00;5.03;;;12.20;80.70;;;;;;5054456;28;20040;-68
2022/01/30 01:27:10;;;;;;;20.88;4.50;;;12.10;80.70;;;;;;5055776;28;20044;-66
2022/01/30 01:29:36;;;;;;;14.55;4.47;;;12.20;81.10;;;;;;5056318;28;20025;-67
2022/01/30 01:32:03;;;;;;;19.38;4.10;;;12.20;81.20;;;;;;5056450;28;20111;-68
2022/01/30 01:34:32;;;;;;;19.42;5.00;;;12.10;81.40;;;;;;5056194;28;20013;-68
2022/01/30 01:36:58;;;;;;;15.35;4.15;;;12.10;81.60;;;;;;5056289;28;20025;-66
2022/01/30 01:39:24;;;;;;;22.30;4.57;;;12.00;81.40;;;;;;5055997;28;20060;-67
2022/01/30 01:41:49;;;;;;;14.30;3.83;;;12.00;81.50;;;;;;5056285;28;20025;-68
2022/01/30 01:44:17;;;;;;;15.10;4.13;;;11.90;81.70;;;;;;5055687;28;20108;-68
2022/01/30 01:46:44;;;;;;;20.92;5.45;;;11.90;81.90;;;;;;5055968;28;20104;-68
2022/01/30 01:49:18;;;;;;;22.90;4.65;;;11.90;81.60;;;;;;5055937;28;20036;-66
2022/01/30 01:51:48;;;;;;;12.75;4.40;;;11.90;82.60;;;;;;5056348;28;20067;-68
2022/01/30 01:54:14;;;;;;;19.63;5.35;;;11.80;82.30;;;;;;5055993;28;20359;-68
2022/01/30 01:56:40;;;;;;;25.33;6.43;;;11.80;82.20;;;;;;5055869;28;20484;-68
2022/01/30 01:59:05;;;;;;;22.90;5.88;;;11.80;81.90;;;;;;5055319;28;20029;-67
2022/01/30 02:01:31;;;;;;;19.67;6.28;;;11.70;82.30;;;;;;5055877;28;20044;-68
2022/01/30 02:03:56;;;;;;;26.02;5.88;;;11.70;82.70;;;;;;5055629;28;20021;-68
2022/01/30 02:06:23;;;;;;;21.60;5.85;;;11.60;82.70;;;;;;5055603;28;20132;-68
2022/01/30 02:08:55;;;;;;;16.70;5.28;;;11.60;82.70;;;;;;5054329;28;20386;-68
2022/01/30 02:27:02;;;;;;;16.60;4.70;;;11.40;83.30;;;;;;5055269;28;20394;-67
2022/01/30 02:29:28;;;;;;;17.30;4.38;;;11.50;83.10;;;;;;5055025;28;20033;-70
2022/01/30 02:31:57;;;;;;;22.48;4.95;;;11.50;83.10;;;;;;5055272;28;20040;-68
2022/01/30 02:34:27;;;;;;;17.60;4.50;;;11.40;82.90;;;;;;5054927;28;20021;-68
2022/01/30 02:36:53;;;;;;;22.83;4.68;;;11.50;82.80;;;;;;5055208;28;20048;-68
2022/01/30 02:39:20;;;;;;;19.52;5.07;;;11.40;82.70;;;;;;5054780;28;20158;-68
2022/01/30 02:41:46;;;;;;;17.00;4.13;;;11.50;82.50;;;;;;5055103;28;20093;-68
2022/01/30 02:46:47;;;;;;;17.63;3.97;;;11.30;82.80;;;;;;5054933;28;20040;-67
2022/01/30 02:51:57;;;;;;;17.58;4.32;;;11.20;83.20;;;;;;5055067;28;20032;-68
2022/01/30 02:54:24;;;;;;;20.48;3.97;;;11.20;83.20;;;;;;5054629;28;20052;-68
2022/01/30 02:56:49;;;;;;;17.92;3.88;;;11.20;83.40;;;;;;5054504;28;20466;-67
2022/01/30 02:59:16;;;;;;;18.65;3.97;;;11.10;83.50;;;;;;5054551;28;20032;-66
2022/01/30 03:01:42;;;;;;;14.50;4.07;;;11.10;83.60;;;;;;5054817;28;20029;-67
2022/01/30 03:04:08;;;;;;;19.70;4.00;;;11.20;83.50;;;;;;5054490;28;20031;-67
2022/01/30 03:06:35;;;;;;;20.05;4.60;;;11.10;83.40;;;;;;5054550;28;20045;-67
2022/01/30 03:09:03;;;;;;;17.98;4.63;;;11.10;83.60;;;;;;5054582;28;20040;-67
2022/01/30 03:11:28;;;;;;;11.65;3.28;;;11.10;83.50;;;;;;5054107;28;20481;-67
2022/01/30 03:13:54;;;;;;;14.30;4.55;;;11.10;83.60;;;;;;5054348;28;20029;-68
2022/01/30 03:16:21;;;;;;;18.13;4.13;;;11.10;83.40;;;;;;5054377;28;20029;-67
2022/01/30 03:18:47;;;;;;;17.25;3.90;;;11.10;83.30;;;;;;5054300;28;20035;-68
2022/01/30 03:21:12;;;;;;;15.48;4.10;;;11.10;83.10;;;;;;5054025;28;20124;-67
2022/01/30 03:23:39;;;;;;;16.15;4.10;;;11.10;83.00;;;;;;5054128;28;20021;-68
2022/01/30 03:26:09;;;;;;;16.48;3.63;;;11.00;83.20;;;;;;5053909;28;20474;-68
2022/01/30 03:28:35;;;;;;;17.80;4.55;;;11.00;83.10;;;;;;5054229;28;20029;-67
2022/01/30 03:31:05;;;;;;;21.83;4.75;;;11.00;83.40;;;;;;5053911;28;20021;-67
2022/01/30 03:33:31;;;;;;;15.93;4.55;;;11.00;83.20;;;;;;5053936;28;20033;-68
2022/01/30 03:35:57;;;;;;;15.75;4.40;;;10.90;83.60;;;;;;5054089;28;20025;-68
2022/01/30 03:38:23;;;;;;;14.25;3.40;;;10.90;83.60;;;;;;5054054;28;20497;-68
2022/01/30 03:40:50;;;;;;;18.63;5.18;;;10.90;83.80;;;;;;5053334;28;20159;-68
2022/01/30 03:43:16;;;;;;;20.33;3.85;;;10.90;83.80;;;;;;5044289;28;20032;-66
2022/01/30 03:45:43;;;;;;;18.17;5.15;;;10.80;83.70;;;;;;5033725;28;20107;-68
2022/01/30 03:48:08;;;;;;;22.67;4.90;;;10.90;84.00;;;;;;5034028;28;20040;-68
2022/01/30 03:50:34;;;;;;;20.08;4.63;;;10.90;84.00;;;;;;5033734;28;20021;-68
2022/01/30 03:53:00;;;;;;;18.98;4.13;;;10.80;84.20;;;;;;5033775;28;20053;-67
2022/01/30 03:55:26;;;;;;;13.93;3.70;;;10.80;84.30;;;;;;5033319;28;20536;-67
2022/01/30 03:57:52;;;;;;;22.00;4.70;;;10.80;84.30;;;;;;5033555;28;20025;-67
2022/01/30 04:00:17;;;;;;;16.67;4.00;;;10.80;84.40;;;;;;5033321;28;20037;-65
2022/01/30 04:02:43;;;;;;;20.95;4.53;;;10.80;83.90;;;;;;5033555;28;20117;-68
2022/01/30 04:05:09;;;;;;;15.85;3.90;;;10.70;84.10;;;;;;5033657;28;20026;-68
2022/01/30 04:07:35;;;;;;;15.60;3.88;;;10.80;84.10;;;;;;5033246;28;20029;-66
2022/01/30 04:10:02;;;;;;;15.82;4.63;;;10.70;84.20;;;;;;5033460;28;20057;-66
2022/01/30 04:12:27;;;;;;;18.08;4.63;;;10.70;84.20;;;;;;5033188;28;20026;-68
2022/01/30 04:14:53;;;;;;;13.32;3.88;;;10.60;84.40;;;;;;5033360;28;20032;-66
2022/01/30 04:17:20;;;;;;;20.70;4.30;;;10.60;84.30;;;;;;5033038;28;20029;-67
2022/01/30 04:19:46;;;;;;;16.85;3.85;;;10.50;84.30;;;;;;5033090;28;20033;-67
2022/01/30 04:22:11;;;;;;;18.02;4.95;;;10.50;84.50;;;;;;5033237;28;20029;-67
2022/01/30 04:24:37;;;;;;;18.30;3.70;;;10.60;84.70;;;;;;5032830;28;20044;-67
2022/01/30 04:27:03;;;;;;;18.23;4.75;;;10.50;84.40;;;;;;5033085;28;20017;-66
2022/01/30 04:29:29;;;;;;;20.02;4.85;;;10.50;84.50;;;;;;5033173;28;20390;-66
2022/01/30 04:31:55;;;;;;;18.75;4.10;;;10.50;84.60;;;;;;5032971;28;20522;-66
2022/01/30 04:34:21;;;;;;;21.80;4.55;;;10.50;84.30;;;;;;5033269;28;20107;-67
2022/01/30 04:37:04;;;;;;;20.48;3.88;;;10.50;84.60;;;;;;5032842;28;20101;-67
2022/01/30 04:51:57;;;;;;;19.23;4.72;;;10.50;84.50;;;;;;5032570;28;19956;-67
2022/01/30 04:58:46;;;;;;;16.92;3.90;;;10.30;84.80;;;;;;5033271;28;20040;-67
2022/01/30 05:03:56;;;;;;;14.43;4.22;;;10.30;85.10;;;;;;5033104;28;20482;-68
2022/01/30 05:06:32;;;;;;;15.82;4.22;;;10.30;85.40;;;;;;5033169;28;20029;-68
2022/01/30 05:08:58;;;;;;;13.13;3.65;;;10.30;85.40;;;;;;5032378;28;20080;-66
2022/01/30 05:11:23;;;;;;;19.33;4.32;;;10.30;85.70;;;;;;5032876;28;20014;-68
2022/01/30 05:13:50;;;;;;;16.05;3.42;;;10.20;85.70;;;;;;5032704;28;20091;-68
2022/01/30 05:16:17;;;;;;;16.70;4.20;;;10.20;85.70;;;;;;5033147;28;20025;-65
2022/01/30 05:18:43;;;;;;;18.05;3.42;;;10.20;86.30;;;;;;5032512;28;20029;-68
2022/01/30 05:21:10;;;;;;;16.40;4.03;;;10.20;85.80;;;;;;5032328;28;20114;-68
2022/01/30 05:23:36;;;;;;;15.50;4.18;;;10.10;85.60;;;;;;5032653;28;20032;-62
2022/01/30 05:26:07;;;;;;;17.77;4.53;;;10.20;85.60;;;;;;5032682;28;20030;-67
2022/01/30 05:28:33;;;;;;;18.40;3.80;;;10.10;85.70;;;;;;5032838;28;20026;-68
2022/01/30 05:30:59;;;;;;;18.90;4.78;;;10.10;85.80;;;;;;5032597;28;20025;-67
2022/01/30 05:33:24;;;;;;;15.60;4.03;;;10.10;85.60;;;;;;5032356;28;20030;-68
2022/01/30 05:35:50;;;;;;;17.38;4.60;;;10.00;86.00;;;;;;5032286;28;20033;-67
2022/01/30 05:38:16;;;;;;;15.18;4.18;;;10.00;85.70;;;;;;5032621;28;20080;-68
2022/01/30 05:40:42;;;;;;;16.92;4.47;;;10.00;85.70;;;;;;5032433;28;20029;-68
2022/01/30 05:43:08;;;;;;;18.98;4.43;;;10.00;85.60;;;;;;5032445;28;20033;-68
2022/01/30 05:45:39;;;;;;;20.05;5.15;;;10.10;85.30;;;;;;5032697;28;20024;-68
2022/01/30 05:48:15;;;;;;;25.38;5.07;;;10.00;85.50;;;;;;5032399;28;20029;-68
2022/01/30 05:50:42;;;;;;;16.55;3.72;;;10.00;85.30;;;;;;5032455;28;20510;-67
2022/01/30 05:53:09;;;;;;;16.98;4.60;;;10.00;85.50;;;;;;5032141;28;20017;-67
2022/01/30 05:55:34;;;;;;;16.20;4.15;;;10.00;85.90;;;;;;5034266;28;20083;-68
2022/01/30 05:58:00;;;;;;;16.92;4.35;;;9.90;86.10;;;;;;5035943;28;20026;-66
2022/01/30 06:00:26;;;;;;;18.10;3.83;;;9.90;86.10;;;;;;5035959;28;20041;-67
2022/01/30 06:02:53;;;;;;;16.05;3.85;;;9.90;85.90;;;;;;5040095;28;20025;-67
2022/01/30 06:05:22;;;;;;;18.75;4.38;;;9.90;86.10;;;;;;5034566;28;20071;-69
2022/01/30 06:07:52;;;;;;;19.48;4.18;;;9.90;86.30;;;;;;5034571;28;20037;-68
2022/01/30 06:10:19;;;;;;;18.85;4.80;;;9.90;86.50;;;;;;5035519;28;20107;-67
2022/01/30 06:12:45;;;;;;;22.27;4.30;;;9.90;86.50;;;;;;5035830;28;20037;-68
2022/01/30 06:15:13;;;;;;;18.85;4.57;;;9.90;86.30;;;;;;5035508;28;20037;-66
2022/01/30 06:17:39;;;;;;;24.83;4.82;;;10.00;86.40;;;;;;5035459;28;20079;-68
2022/01/30 06:20:06;;;;;;;18.05;5.28;;;10.00;86.20;;;;;;5035041;28;20033;-69
2022/01/30 06:22:31;;;;;;;21.48;4.65;;;9.90;86.10;;;;;;5035614;28;20044;-68
2022/01/30 06:24:57;;;;;;;20.60;4.28;;;9.90;86.80;;;;;;5035344;28;20451;-67
2022/01/30 06:27:22;;;;;;;18.50;4.00;;;9.90;86.40;;;;;;5043460;28;20457;-67
2022/01/30 06:29:48;;;;;;;20.77;4.22;;;9.90;86.40;;;;;;5039302;28;20527;-67
2022/01/30 06:32:15;;;;;;;21.48;4.57;;;9.90;86.80;;;;;;5035172;28;20024;-68
2022/01/30 06:34:41;;;;;;;22.05;4.22;;;9.90;86.20;;;;;;5038176;28;20025;-66
2022/01/30 06:37:07;;;;;;;17.58;5.13;;;9.90;86.60;;;;;;5047571;28;20036;-68
2022/01/30 06:39:32;;;;;;;21.02;4.82;;;9.90;86.60;;;;;;5054450;28;20066;-68
2022/01/30 06:41:59;;;;;;;18.15;3.75;;;9.90;86.50;;;;;;5037878;28;20033;-68
2022/01/30 06:44:24;;;;;;;15.73;4.05;;;9.80;86.70;;;;;;5034572;28;20018;-68
2022/01/30 06:46:50;;;;;;;20.55;5.63;;;9.90;86.80;;;;;;5048776;28;20475;-68
2022/01/30 06:49:15;;;;;;;19.85;4.57;;;9.90;87.30;;;;;;5048069;28;20037;-67
2022/01/30 06:51:41;;;;;;;22.02;4.32;;;9.80;87.10;;;;;;5040246;28;20556;-70
2022/01/30 06:54:07;;;;;;;15.00;4.50;;;9.80;87.50;;;;;;5054317;28;20489;-69
2022/01/30 06:56:32;;;;;;;20.55;4.47;;;9.90;87.40;;;;;;5037372;28;20388;-69
2022/01/30 06:58:58;;;;;;;16.15;4.22;;;9.80;87.20;;;;;;5034837;28;20041;-70
2022/01/30 07:01:25;;;;;;;20.40;4.72;;;9.90;87.20;;;;;;5034505;28;20395;-70
2022/01/30 07:03:51;;;;;;;23.10;4.13;;;10.00;87.80;;;;;;5036225;28;20021;-70
2022/01/30 07:06:16;;;;;;;17.13;4.38;;;10.10;89.50;;;;;;5042647;28;20028;-71
2022/01/30 07:08:42;;;;;;;20.33;4.07;;;10.10;87.40;;;;;;5053551;28;20092;-69
2022/01/30 07:11:07;;;;;;;19.52;4.03;;;10.00;87.20;;;;;;5040293;28;20062;-70
2022/01/30 07:13:33;;;;;;;15.13;4.60;;;9.90;87.70;;;;;;5051352;28;20017;-71
2022/01/30 07:15:59;;;;;;;23.25;4.80;;;9.90;87.60;;;;;;5053210;28;20028;-70
2022/01/30 07:18:24;;;;;;;20.63;5.00;;;9.90;87.80;;;;;;5053767;28;20029;-70
2022/01/30 07:20:50;;;;;;;20.25;5.82;;;10.00;87.80;;;;;;5040077;28;20482;-71
2022/01/30 07:23:15;;;;;;;19.10;4.10;;;9.90;88.20;;;;;;5050586;28;20474;-70
2022/01/30 07:25:43;;;;;;;20.83;4.85;;;9.90;88.40;;;;;;5057246;28;20067;-70
2022/01/30 07:28:08;;;;;;;20.42;5.38;;;9.90;88.40;;;;;;5059186;28;20032;-70
2022/01/30 07:30:35;;;;;;;22.42;4.88;;;9.90;88.30;;;;;;5047327;28;20029;-70
2022/01/30 07:33:00;;;;;;;17.85;4.35;;;9.90;88.50;;;;;;5053334;28;20501;-70
2022/01/30 07:35:26;;;;;;;24.73;5.70;;;9.90;89.00;;;;;;5034331;28;20033;-71
2022/01/30 07:37:52;;;;;;;23.02;5.13;;;9.90;89.00;;;;;;5033131;28;20018;-70
2022/01/30 07:40:18;;;;;;;27.85;5.15;;;10.00;88.80;;;;;;5033609;28;20033;-70
2022/01/30 07:42:43;;;;;;;20.25;5.20;;;9.90;88.60;;;;;;5050122;28;20025;-71
2022/01/30 07:45:09;;;;;;;19.40;4.05;;;10.00;88.80;;;;;;5053917;28;20025;-66
2022/01/30 07:47:35;;;;;;;21.85;4.40;;;10.00;89.00;;;;;;5036189;28;20033;-68
2022/01/30 07:50:01;;;;;;;20.33;4.63;;;10.00;89.50;;;;;;5052038;28;20022;-68
2022/01/30 07:52:26;;;;;;;24.48;4.32;;;10.00;89.50;;;;;;5043696;28;21328;-69
2022/01/30 07:54:52;;;;;;;29.33;6.22;;;10.00;90.10;;;;;;5051132;28;20394;-68
2022/01/30 07:57:18;;;;;;;23.30;5.75;;;10.00;90.00;;;;;;5041402;28;20052;-69
2022/01/30 07:59:44;;;;;;;29.27;7.65;;;10.00;90.10;;;;;;5039226;28;20087;-69
2022/01/30 08:02:10;;;;;;;25.27;7.00;;;10.10;89.90;;;;;;5046377;28;20179;-66
2022/01/30 08:04:35;;;;;;;28.70;7.55;;;10.30;89.40;;;;;;5048362;28;20017;-69
2022/01/30 08:07:01;;;;;;;22.98;6.85;;;10.10;89.70;;;;;;5033588;28;20509;-69
2022/01/30 08:09:27;;;;;;;23.00;7.25;;;10.10;89.70;;;;;;5032682;28;20029;-69
2022/01/30 08:11:54;;;;;;;22.98;7.20;;;10.20;89.60;;;;;;5039765;28;20037;-69
2022/01/30 08:14:19;;;;;;;23.08;6.72;;;10.20;89.20;;;;;;5032958;28;20025;-68
2022/01/30 08:16:45;;;;;;;29.33;8.32;;;10.20;89.20;;;;;;5046008;28;20032;-67
2022/01/30 08:19:10;;;;;;;23.10;6.18;;;10.30;89.10;;;;;;5052352;28;20033;-69
2022/01/30 08:21:36;;;;;;;29.60;6.57;;;10.30;88.90;;;;;;5043100;28;20490;-70
2022/01/30 08:24:01;;;;;;;20.52;5.00;;;10.20;89.20;;;;;;5032632;28;20033;-70
2022/01/30 08:26:27;;;;;;;19.50;5.65;;;10.20;89.00;;;;;;5050488;28;20029;-69
2022/01/30 08:28:53;;;;;;;18.92;5.43;;;10.20;89.00;;;;;;5053321;28;20029;-69
2022/01/30 08:31:18;;;;;;;18.77;5.38;;;10.10;89.00;;;;;;5034726;28;20029;-70
2022/01/30 08:33:44;;;;;;;24.80;5.85;;;10.20;89.00;;;;;;5035910;28;20037;-69
2022/01/30 08:36:09;;;;;;;27.40;5.57;;;10.10;89.10;;;;;;5052183;28;20023;-70
2022/01/30 08:38:35;;;;;;;22.25;5.85;;;10.10;89.30;;;;;;5051188;28;20068;-69
2022/01/30 08:41:00;;;;;;;27.65;6.82;;;10.10;89.90;;;;;;5052059;28;20036;-64
2022/01/30 08:43:26;;;;;;;16.13;5.05;;;10.10;89.90;;;;;;5050761;28;20029;-69
2022/01/30 08:45:52;;;;;;;24.77;6.15;;;10.10;89.50;;;;;;5033587;28;20030;-69
2022/01/30 08:48:18;;;;;;;21.55;5.20;;;10.10;89.20;;;;;;5032864;28;20506;-70
2022/01/30 08:50:45;;;;;;;21.88;5.78;;;10.20;89.40;;;;;;5032786;28;20441;-69
2022/01/30 08:53:11;;;;;;;24.00;6.70;;;10.20;90.40;;;;;;5046740;28;20053;-70
2022/01/30 08:55:37;;;;;;;25.25;5.63;;;10.30;89.40;;;;;;5052854;28;20056;-69
2022/01/30 08:58:09;;;;;;;22.55;5.05;;;10.20;89.60;;;;;;5036710;28;20029;-69
2022/01/30 09:00:42;;;;;;;21.55;5.38;;;10.10;90.20;;;;;;5032340;28;20124;-69
2022/01/30 09:03:07;;;;;;;20.35;4.82;;;10.20;89.70;;;;;;5035864;28;20425;-69
2022/01/30 09:05:36;;;;;;;21.83;5.10;;;10.20;90.30;;;;;;5036084;28;20515;-69
2022/01/30 09:08:04;;;;;;;19.70;5.05;;;10.30;89.40;;;;;;5031022;28;20053;-69
2022/01/30 09:10:37;;;;;;;21.48;5.03;;;10.40;89.60;;;;;;5034154;28;20018;-69
2022/01/30 09:13:05;;;;;;;21.10;5.22;;;10.30;90.10;;;;;;5036903;28;20037;-62
2022/01/30 09:15:30;;;;;;;23.17;5.57;;;10.30;90.40;;;;;;5035113;28;20033;-67
2022/01/30 09:17:57;;;;;;;22.02;5.15;;;10.30;90.50;;;;;;5034494;28;20048;-63
2022/01/30 09:20:24;;;;;;;26.48;5.00;;;10.30;90.40;;;;;;5037825;28;20037;-69
2022/01/30 09:22:51;;;;;;;17.33;4.88;;;10.30;90.50;;;;;;5038992;28;20057;-70
2022/01/30 09:25:17;;;;;;;22.17;4.10;;;10.30;90.30;;;;;;5036629;28;20051;-67
2022/01/30 09:27:43;;;;;;;18.67;4.53;;;10.40;90.30;;;;;;5034229;28;20481;-70
2022/01/30 09:30:10;;;;;;;15.75;4.55;;;10.50;90.10;;;;;;5035105;28;20032;-69
2022/01/30 09:32:35;;;;;;;23.58;5.53;;;10.40;90.30;;;;;;5038035;28;20537;-69
2022/01/30 09:35:02;;;;;;;24.05;5.35;;;10.40;90.30;;;;;;5043404;28;20033;-68
2022/01/30 09:37:28;;;;;;;20.85;5.15;;;10.60;90.00;;;;;;5040565;28;20029;-66
2022/01/30 09:39:53;;;;;;;27.40;4.20;;;10.60;89.50;;;;;;5041637;28;20025;-67
2022/01/30 09:42:22;;;;;;;18.83;3.83;;;10.60;90.30;;;;;;5038822;28;20040;-67
2022/01/30 09:44:47;;;;;;;17.60;4.50;;;10.70;91.40;;;;;;5041533;28;20026;-70
2022/01/30 09:47:14;;;;;;;29.40;6.88;;;10.70;90.50;;;;;;5036564;28;20477;-68
2022/01/30 09:49:46;;;;;;;22.77;5.22;;;10.60;90.40;;;;;;5038129;28;20440;-66
2022/01/30 09:52:11;;;;;;;20.77;5.60;;;10.60;90.60;;;;;;5045665;28;20064;-69
2022/01/30 09:54:37;;;;;;;16.42;5.15;;;10.60;90.50;;;;;;5032611;28;20324;-69
2022/01/30 09:57:03;;;;;;;22.98;4.60;;;10.70;90.60;;;;;;5042700;28;20032;-72
2022/01/30 09:59:29;;;;;;;24.90;5.55;;;10.70;90.40;;;;;;5065191;28;20091;-69
2022/01/30 10:01:54;;;;;;;23.75;5.47;;;10.70;90.20;;;;;;5059531;28;20142;-69
2022/01/30 10:04:20;;;;;;;19.17;4.95;;;10.70;90.40;;;;;;5041768;28;20029;-67
2022/01/30 10:07:02;;;;;;;19.85;5.32;;;10.70;90.60;;;;;;5044799;28;20418;-67
2022/01/30 10:09:31;;;;;;;28.55;5.50;;;10.80;90.30;;;;;;5051698;28;20425;-69
2022/01/30 10:12:26;;;;;;;18.65;5.20;;;10.80;90.30;;;;;;5049926;28;20032;-66
2022/01/30 10:15:04;;;;;;;22.52;6.00;;;10.80;90.50;;;;;;5049697;28;20486;-70
2022/01/30 10:17:35;;;;;;;23.20;5.82;;;10.70;90.50;;;;;;5050182;28;20029;-71
2022/01/30 10:20:03;;;;;;;23.58;5.95;;;10.80;90.50;;;;;;5052325;28;20124;-69
2022/01/30 10:22:29;;;;;;;22.13;4.45;;;10.90;90.80;;;;;;5037407;28;20021;-70
2022/01/30 10:24:56;;;;;;;21.60;5.32;;;11.00;91.30;;;;;;5041745;28;20029;-68
2022/01/30 10:27:29;;;;;;;19.77;4.72;;;11.00;91.20;;;;;;5038452;28;20028;-70
2022/01/30 10:29:58;;;;;;;23.83;4.57;;;11.00;90.80;;;;;;5066665;28;20432;-69
2022/01/30 10:32:26;;;;;;;22.98;4.97;;;11.20;91.40;;;;;;5048568;28;20025;-69
2022/01/30 10:35:07;;;;;;;17.33;4.10;;;11.20;91.50;;;;;;5042386;28;20052;-64
2022/01/30 10:37:34;;;;;;;19.40;4.47;;;11.30;91.40;;;;;;5047402;28;20087;-72
2022/01/30 10:40:18;;;;;;;19.88;4.65;;;11.40;90.90;;;;;;5043533;28;20020;-70
2022/01/30 10:42:45;;;;;;;19.88;4.85;;;11.30;89.70;;;;;;5039176;28;20041;-69
2022/01/30 10:45:34;;;;;;;21.30;4.03;;;11.30;90.00;;;;;;5036050;28;20346;-68
2022/01/30 10:48:17;;;;;;;24.20;5.35;;;11.40;90.30;;;;;;5034332;28;20064;-68
2022/01/30 10:50:47;;;;;;;24.13;5.10;;;11.40;89.50;;;;;;5039699;28;20033;-68
2022/01/30 10:53:38;;;;;;;16.60;4.80;;;11.40;89.90;;;;;;5042233;28;20462;-67
2022/01/30 10:56:16;;;;;;;20.85;4.72;;;11.50;90.90;;;;;;5046220;28;20585;-67
2022/01/30 10:58:42;;;;;;;21.77;4.97;;;11.50;88.80;;;;;;5041188;28;20086;-68
2022/01/30 11:01:07;;;;;;;21.05;4.95;;;11.50;90.20;;;;;;5042861;28;20033;-69
2022/01/30 11:03:50;;;;;;;18.05;3.60;;;11.50;88.40;;;;;;5044724;28;20075;-69
2022/01/30 11:06:16;;;;;;;21.83;4.72;;;11.60;90.40;;;;;;5040249;28;20393;-69
2022/01/30 11:08:48;;;;;;;19.52;4.68;;;11.60;90.20;;;;;;5043797;28;20017;-69
2022/01/30 11:14:03;;;;;;;19.02;4.50;;;11.60;90.30;;;;;;5035084;28;20461;-69
2022/01/30 11:19:16;;;;;;;22.45;6.13;;;11.70;89.20;;;;;;5040974;28;20063;-67
2022/01/30 11:21:44;;;;;;;23.08;4.47;;;11.70;89.10;;;;;;5050523;28;20041;-69
2022/01/30 11:24:12;;;;;;;18.58;4.28;;;11.70;89.40;;;;;;5041213;28;20037;-70
2022/01/30 11:26:38;;;;;;;24.00;4.57;;;11.80;90.30;;;;;;5036920;28;20486;-70
2022/01/30 11:29:08;;;;;;;21.88;5.03;;;11.80;90.00;;;;;;5040429;28;20026;-66
2022/01/30 11:31:35;;;;;;;20.35;4.32;;;11.80;89.00;;;;;;5044483;28;20028;-70
2022/01/30 11:34:01;;;;;;;22.58;5.45;;;11.80;89.40;;;;;;5036396;28;20080;-70
2022/01/30 11:36:27;;;;;;;21.05;4.45;;;11.80;88.00;;;;;;5045638;28;20029;-69
2022/01/30 11:38:53;;;;;;;21.00;4.50;;;11.80;89.70;;;;;;5040809;28;20437;-68
2022/01/30 11:41:20;;;;;;;18.33;4.05;;;11.90;90.70;;;;;;5038288;28;20556;-68
2022/01/30 11:44:18;;;;;;;17.58;3.55;;;11.90;89.50;;;;;;5036830;28;20022;-70
2022/01/30 11:46:57;;;;;;;16.98;3.85;;;11.90;90.60;;;;;;5036571;28;20055;-63
2022/01/30 11:49:36;;;;;;;22.08;4.38;;;12.10;91.60;;;;;;5051645;28;20111;-71
2022/01/30 11:52:02;;;;;;;23.83;4.35;;;12.10;90.60;;;;;;5042354;28;20029;-72
2022/01/30 11:54:38;;;;;;;26.25;4.97;;;12.10;91.10;;;;;;5035828;28;20545;-69
2022/01/30 11:57:23;;;;;;;20.85;3.92;;;12.20;92.20;;;;;;5049568;28;20025;-71
2022/01/30 11:59:56;;;;;;;18.98;4.30;;;12.30;92.40;;;;;;5033131;28;20076;-71
2022/01/30 12:02:44;;;;;;;;;;;12.30;91.80;;;;;;5042637;28;20044;-63
2022/01/30 12:05:10;;;;;;;17.20;3.80;;;12.30;91.30;;;;;;5037546;28;19909;-63
2022/01/30 12:07:45;;;;;;;18.95;4.93;;;12.30;90.50;;;;;;5036036;28;20029;-71
2022/01/30 12:10:19;;;;;;;23.48;4.97;;;12.40;91.90;;;;;;5038473;28;20030;-68
2022/01/30 12:12:47;;;;;;;20.80;4.85;;;12.50;93.30;;;;;;5040210;28;20032;-70
2022/01/30 12:15:42;;;;;;;18.50;3.97;;;12.40;92.20;;;;;;5050115;28;20025;-70
2022/01/30 12:18:09;;;;;;;18.92;5.22;;;12.50;91.50;;;;;;5037264;28;20060;-70
2022/01/30 12:20:56;;;;;;;19.05;4.38;;;12.40;92.20;;;;;;5033384;28;20147;-70
2022/01/30 12:23:28;;;;;;;18.25;4.18;;;12.50;91.00;;;;;;5033845;28;20046;-71
2022/01/30 12:26:03;;;;;;;19.33;4.20;;;12.50;90.90;;;;;;5039540;28;20022;-71
2022/01/30 12:28:49;;;;;;;20.10;4.72;;;12.40;92.50;;;;;;5038109;28;20025;-65
2022/01/30 12:31:30;;;;;;;20.17;4.47;;;12.50;92.60;;;;;;5044945;28;20466;-71
2022/01/30 12:34:03;;;;;;;21.83;4.80;;;12.60;93.30;;;;;;5047759;28;20036;-70
2022/01/30 12:36:31;;;;;;;20.88;4.93;;;12.60;93.90;;;;;;5050859;28;20048;-71
2022/01/30 12:38:59;;;;;;;30.35;5.18;;;12.70;94.40;;;;;;5047341;28;20478;-72
2022/01/30 12:41:28;;;;;;;20.50;5.00;;;12.60;93.60;;;;;;5042355;28;20116;-71
2022/01/30 12:43:56;;;;;;;25.15;6.40;;;12.70;93.80;;;;;;5045106;28;20021;-71
2022/01/30 12:46:24;;;;;;;18.58;4.38;;;12.80;94.70;;;;;;5044394;28;20420;-71
2022/01/30 12:49:12;;;;;;;21.02;4.18;;;12.70;91.30;;;;;;5045667;28;20033;-71
2022/01/30 12:51:40;;;;;;;20.73;4.78;;;12.70;90.40;;;;;;5044438;28;20017;-70
2022/01/30 12:54:07;;;;;;;23.73;4.07;;;12.70;91.10;;;;;;5036353;28;20025;-72
2022/01/30 12:56:33;;;;;;;17.83;4.38;;;12.70;91.10;;;;;;5045818;28;20017;-70
2022/01/30 12:59:06;;;;;;;17.67;3.67;;;12.80;87.30;;;;;;5040469;28;20159;-70
2022/01/30 13:01:39;;;;;;;19.23;4.22;;;12.80;87.30;;;;;;5045057;28;20052;-71
2022/01/30 13:04:27;;;;;;;15.43;3.60;;;12.80;85.00;;;;;;5043167;28;20041;-67
2022/01/30 13:06:53;;;;;;;15.57;3.45;;;12.80;84.00;;;;;;5049117;28;20028;-70
2022/01/30 13:09:22;;;;;;;20.10;4.63;;;12.80;82.60;;;;;;5054167;28;20434;-72
2022/01/30 13:11:51;;;;;;;16.15;3.97;;;12.80;81.30;;;;;;5049939;28;20458;-71
2022/01/30 13:14:17;;;;;;;16.10;3.65;;;12.70;81.00;;;;;;5044836;28;20120;-73
2022/01/30 13:16:45;;;;;;;19.45;3.42;;;12.70;79.00;;;;;;5039019;28;20501;-71
2022/01/30 13:19:29;;;;;;;14.15;3.50;;;12.70;77.10;;;;;;5037265;28;20032;-68
2022/01/30 13:21:55;;;;;;;16.38;3.60;;;12.80;77.30;;;;;;5041569;28;20112;-69
2022/01/30 13:24:20;;;;;;;18.02;4.47;;;12.60;77.60;;;;;;5038462;28;20129;-70
2022/01/30 13:26:51;;;;;;;17.50;3.58;;;12.60;76.60;;;;;;5045378;28;20096;-72
2022/01/30 13:29:21;;;;;;;15.05;3.97;;;12.60;76.00;;;;;;5044332;28;20037;-71
2022/01/30 13:31:52;;;;;;;18.95;4.35;;;12.60;76.40;;;;;;5035230;28;20076;-71
2022/01/30 13:34:21;;;;;;;17.33;3.83;;;12.60;76.30;;;;;;5039457;28;20013;-73
2022/01/30 13:36:55;;;;;;;15.32;3.88;;;12.60;75.60;;;;;;5050908;28;20027;-67
2022/01/30 13:39:38;;;;;;;21.02;4.47;;;12.60;79.00;;;;;;5044858;28;20017;-71
2022/01/30 13:42:45;;;;;;;13.40;3.00;;;12.60;76.00;;;;;;5042940;28;20037;-71
2022/01/30 13:48:03;;;;;;;13.48;3.42;;;12.60;77.20;;;;;;5040012;28;20402;-72
2022/01/30 13:50:40;;;;;;;15.05;3.70;;;12.60;76.50;;;;;;5038720;28;20036;-74